createdAt,value
2022-12-18T00:00:07.378Z,-3.70
2022-12-18T00:00:16.776Z,-3.70
2022-12-18T00:00:26.392Z,-3.70
2022-12-18T00:00:35.847Z,-3.70
2022-12-18T00:00:45.259Z,-3.70
2022-12-18T00:00:54.651Z,-3.70
2022-12-18T00:01:04.037Z,-3.70
2022-12-18T00:01:13.524Z,-3.70
2022-12-18T00:01:22.949Z,-3.70
2022-12-18T00:01:32.490Z,-3.80
2022-12-18T00:01:41.732Z,-3.70
2022-12-18T00:01:51.128Z,-3.70
2022-12-18T00:02:00.568Z,-3.70
2022-12-18T00:02:09.901Z,-3.70
2022-12-18T00:02:28.789Z,-3.70
2022-12-18T00:02:38.275Z,-3.70
2022-12-18T00:02:47.746Z,-3.70
2022-12-18T00:02:57.137Z,-3.70
2022-12-18T00:03:06.572Z,-3.70
2022-12-18T00:03:16.078Z,-3.80
2022-12-18T00:03:25.478Z,-3.80
2022-12-18T00:03:35.020Z,-3.80
2022-12-18T00:03:45.164Z,-3.80
2022-12-18T00:03:53.798Z,-3.80
2022-12-18T00:04:03.192Z,-3.80
2022-12-18T00:04:12.479Z,-3.80
2022-12-18T00:04:21.933Z,-3.80
2022-12-18T00:04:31.317Z,-3.70
2022-12-18T00:04:40.609Z,-3.80
2022-12-18T00:04:50.022Z,-3.80
2022-12-18T00:05:08.828Z,-3.80
2022-12-18T00:05:18.293Z,-3.80
2022-12-18T00:05:27.953Z,-3.80
2022-12-18T00:05:37.343Z,-3.80
2022-12-18T00:05:46.751Z,-3.80
2022-12-18T00:05:56.160Z,-3.80
2022-12-18T00:06:05.571Z,-3.90
2022-12-18T00:06:14.977Z,-3.90
2022-12-18T00:06:24.447Z,-3.90
2022-12-18T00:06:33.864Z,-3.90
2022-12-18T00:06:43.287Z,-3.90
2022-12-18T00:06:52.689Z,-3.90
2022-12-18T00:07:02.105Z,-3.90
2022-12-18T00:07:11.903Z,-3.90
2022-12-18T00:07:21.370Z,-3.90
2022-12-18T00:07:30.791Z,-3.90
2022-12-18T00:07:40.199Z,-4.00
2022-12-18T00:07:59.011Z,-4.00
2022-12-18T00:08:09.578Z,-4.00
2022-12-18T00:08:18.035Z,-4.00
2022-12-18T00:08:27.413Z,-4.00
2022-12-18T00:08:36.822Z,-4.00
2022-12-18T00:08:46.214Z,-4.00
2022-12-18T00:08:55.635Z,-4.00
2022-12-18T00:09:05.085Z,-4.00
2022-12-18T00:09:14.572Z,-4.00
2022-12-18T00:09:24.743Z,-3.90
2022-12-18T00:09:40.012Z,-3.90
2022-12-18T00:09:42.900Z,-3.90
2022-12-18T00:09:52.377Z,-3.90
2022-12-18T00:10:01.841Z,-4.00
2022-12-18T00:10:11.373Z,-3.90
2022-12-18T00:10:20.774Z,-3.90
2022-12-18T00:10:30.210Z,-3.90
2022-12-18T00:10:49.068Z,-3.90
2022-12-18T00:10:59.828Z,-4.00
2022-12-18T00:11:07.962Z,-4.00
2022-12-18T00:11:17.420Z,-4.00
2022-12-18T00:11:26.858Z,-4.00
2022-12-18T00:11:36.247Z,-4.00
2022-12-18T00:11:45.631Z,-4.00
2022-12-18T00:11:55.073Z,-4.00
2022-12-18T00:12:23.409Z,-4.00
2022-12-18T00:12:32.807Z,-4.00
2022-12-18T00:12:42.197Z,-4.00
2022-12-18T00:12:51.622Z,-4.00
2022-12-18T00:13:03.885Z,-4.00
2022-12-18T00:13:11.460Z,-4.00
2022-12-18T00:13:20.854Z,-4.00
2022-12-18T00:13:30.266Z,-4.00
2022-12-18T00:13:49.154Z,-4.00
2022-12-18T00:13:58.565Z,-4.00
2022-12-18T00:14:08.241Z,-4.00
2022-12-18T00:14:17.668Z,-4.00
2022-12-18T00:14:27.075Z,-4.00
2022-12-18T00:14:36.518Z,-4.00
2022-12-18T00:14:45.948Z,-4.00
2022-12-18T00:14:55.348Z,-4.00
2022-12-18T00:15:04.749Z,-4.00
2022-12-18T00:15:14.159Z,-4.10
2022-12-18T00:15:23.571Z,-4.10
2022-12-18T00:15:33.001Z,-4.10
2022-12-18T00:15:42.517Z,-4.10
2022-12-18T00:15:51.875Z,-4.10
2022-12-18T00:16:01.210Z,-4.10
2022-12-18T00:16:10.668Z,-4.00
2022-12-18T00:16:20.065Z,-4.00
2022-12-18T00:16:38.838Z,-4.10
2022-12-18T00:16:48.199Z,-4.00
2022-12-18T00:16:57.620Z,-4.00
2022-12-18T00:17:08.537Z,-4.20
2022-12-18T00:17:17.974Z,-4.00
2022-12-18T00:17:27.386Z,-4.10
2022-12-18T00:17:36.790Z,-4.10
2022-12-18T00:17:46.196Z,-4.10
2022-12-18T00:17:55.579Z,-4.10
2022-12-18T00:18:04.986Z,-4.10
2022-12-18T00:18:18.931Z,-4.10
2022-12-18T00:18:23.804Z,-4.10
2022-12-18T00:18:33.199Z,-4.10
2022-12-18T00:18:42.747Z,-4.10
2022-12-18T00:18:52.029Z,-4.10
2022-12-18T00:19:01.520Z,-4.10
2022-12-18T00:19:10.985Z,-4.10
2022-12-18T00:19:20.419Z,-4.10
2022-12-18T00:19:39.253Z,-4.10
2022-12-18T00:19:48.652Z,-4.10
2022-12-18T00:19:58.049Z,-4.10
2022-12-18T00:20:07.457Z,-4.10
2022-12-18T00:20:16.870Z,-4.10
2022-12-18T00:20:26.265Z,-4.10
2022-12-18T00:20:35.675Z,-4.10
2022-12-18T00:20:45.079Z,-4.10
2022-12-18T00:20:54.479Z,-4.10
2022-12-18T00:21:03.863Z,-4.10
2022-12-18T00:21:13.248Z,-4.00
2022-12-18T00:21:22.641Z,-4.00
2022-12-18T00:21:32.069Z,-4.00
2022-12-18T00:21:41.487Z,-4.00
2022-12-18T00:21:50.904Z,-4.00
2022-12-18T00:22:00.336Z,-4.00
2022-12-18T00:22:19.147Z,-4.00
2022-12-18T00:22:28.555Z,-4.00
2022-12-18T00:22:37.950Z,-4.00
2022-12-18T00:22:47.365Z,-4.00
2022-12-18T00:22:56.767Z,-4.00
2022-12-18T00:23:06.171Z,-4.00
2022-12-18T00:23:15.590Z,-4.00
2022-12-18T00:23:25.101Z,-4.00
2022-12-18T00:23:34.548Z,-4.00
2022-12-18T00:23:44.024Z,-4.00
2022-12-18T00:23:53.310Z,-4.00
2022-12-18T00:24:02.711Z,-4.00
2022-12-18T00:24:12.117Z,-4.00
2022-12-18T00:24:21.505Z,-4.00
2022-12-18T00:24:30.929Z,-4.00
2022-12-18T00:24:40.318Z,-4.00
2022-12-18T00:24:59.179Z,-4.00
2022-12-18T00:25:08.604Z,-4.00
2022-12-18T00:25:18.008Z,-4.00
2022-12-18T00:25:27.421Z,-4.00
2022-12-18T00:25:36.837Z,-4.00
2022-12-18T00:25:46.221Z,-4.00
2022-12-18T00:25:55.619Z,-3.90
2022-12-18T00:26:05.037Z,-3.90
2022-12-18T00:26:14.433Z,-3.90
2022-12-18T00:26:23.855Z,-3.90
2022-12-18T00:26:33.259Z,-4.00
2022-12-18T00:26:42.664Z,-3.90
2022-12-18T00:26:52.065Z,-3.90
2022-12-18T00:27:01.486Z,-3.90
2022-12-18T00:27:10.908Z,-3.90
2022-12-18T00:27:20.374Z,-3.90
2022-12-18T00:27:39.215Z,-3.90
2022-12-18T00:27:48.621Z,-3.90
2022-12-18T00:27:58.014Z,-3.90
2022-12-18T00:28:07.433Z,-3.90
2022-12-18T00:28:16.861Z,-3.90
2022-12-18T00:28:26.259Z,-3.90
2022-12-18T00:28:35.642Z,-3.90
2022-12-18T00:28:45.062Z,-3.90
2022-12-18T00:28:54.458Z,-3.90
2022-12-18T00:29:03.889Z,-3.90
2022-12-18T00:29:13.275Z,-3.90
2022-12-18T00:29:22.663Z,-3.90
2022-12-18T00:29:32.074Z,-3.90
2022-12-18T00:29:41.595Z,-3.90
2022-12-18T00:29:50.971Z,-3.90
2022-12-18T00:30:00.389Z,-3.90
2022-12-18T00:30:19.222Z,-4.00
2022-12-18T00:30:28.609Z,-4.00
2022-12-18T00:30:38.035Z,-4.00
2022-12-18T00:30:47.439Z,-4.00
2022-12-18T00:30:56.836Z,-4.00
2022-12-18T00:31:06.376Z,-3.90
2022-12-18T00:31:15.759Z,-3.90
2022-12-18T00:31:25.258Z,-3.90
2022-12-18T00:31:34.651Z,-3.90
2022-12-18T00:31:44.048Z,-3.90
2022-12-18T00:31:53.492Z,-3.90
2022-12-18T00:32:02.903Z,-3.90
2022-12-18T00:32:12.206Z,-3.90
2022-12-18T00:32:21.613Z,-4.00
2022-12-18T00:32:31.015Z,-3.90
2022-12-18T00:32:40.421Z,-3.90
2022-12-18T00:32:59.214Z,-3.90
2022-12-18T00:33:08.622Z,-3.90
2022-12-18T00:33:18.043Z,-4.00
2022-12-18T00:33:27.436Z,-4.00
2022-12-18T00:33:37.308Z,-4.00
2022-12-18T00:33:46.232Z,-4.00
2022-12-18T00:33:55.618Z,-4.00
2022-12-18T00:34:05.072Z,-4.00
2022-12-18T00:34:14.553Z,-4.00
2022-12-18T00:34:23.926Z,-4.00
2022-12-18T00:34:33.338Z,-4.00
2022-12-18T00:34:42.746Z,-4.00
2022-12-18T00:34:52.170Z,-4.00
2022-12-18T00:35:01.602Z,-4.00
2022-12-18T00:35:10.992Z,-4.00
2022-12-18T00:35:20.409Z,-4.00
2022-12-18T00:35:39.204Z,-4.00
2022-12-18T00:35:48.624Z,-4.00
2022-12-18T00:35:58.031Z,-4.00
2022-12-18T00:36:07.456Z,-4.00
2022-12-18T00:36:16.870Z,-4.00
2022-12-18T00:36:26.263Z,-4.00
2022-12-18T00:36:35.669Z,-4.00
2022-12-18T00:36:45.069Z,-4.00
2022-12-18T00:36:54.457Z,-4.10
2022-12-18T00:37:03.858Z,-4.10
2022-12-18T00:37:18.275Z,-4.10
2022-12-18T00:37:22.722Z,-4.10
2022-12-18T00:37:32.099Z,-4.10
2022-12-18T00:37:41.528Z,-4.10
2022-12-18T00:37:50.924Z,-4.10
2022-12-18T00:38:00.337Z,-4.10
2022-12-18T00:38:19.158Z,-4.10
2022-12-18T00:38:28.601Z,-4.10
2022-12-18T00:38:37.965Z,-4.10
2022-12-18T00:38:47.379Z,-4.10
2022-12-18T00:38:56.798Z,-4.10
2022-12-18T00:39:06.218Z,-4.10
2022-12-18T00:39:15.641Z,-4.10
2022-12-18T00:39:25.058Z,-4.10
2022-12-18T00:39:34.498Z,-4.20
2022-12-18T00:39:43.900Z,-4.20
2022-12-18T00:39:53.318Z,-4.20
2022-12-18T00:40:02.745Z,-4.20
2022-12-18T00:40:12.164Z,-4.20
2022-12-18T00:40:21.592Z,-4.20
2022-12-18T00:40:31.006Z,-4.20
2022-12-18T00:40:40.422Z,-4.20
2022-12-18T00:40:59.263Z,-4.20
2022-12-18T00:41:08.659Z,-4.20
2022-12-18T00:41:18.084Z,-4.20
2022-12-18T00:41:27.491Z,-4.20
2022-12-18T00:41:36.886Z,-4.20
2022-12-18T00:41:46.277Z,-4.20
2022-12-18T00:41:55.691Z,-4.20
2022-12-18T00:42:05.107Z,-4.20
2022-12-18T00:42:14.503Z,-4.20
2022-12-18T00:42:23.918Z,-4.20
2022-12-18T00:42:33.293Z,-4.20
2022-12-18T00:42:42.685Z,-4.20
2022-12-18T00:42:52.084Z,-4.20
2022-12-18T00:43:01.565Z,-4.20
2022-12-18T00:43:10.988Z,-4.20
2022-12-18T00:43:20.371Z,-4.20
2022-12-18T00:43:39.691Z,-4.10
2022-12-18T00:43:48.601Z,-4.10
2022-12-18T00:43:58.059Z,-4.10
2022-12-18T00:44:07.470Z,-4.10
2022-12-18T00:44:16.876Z,-4.10
2022-12-18T00:44:26.286Z,-4.10
2022-12-18T00:44:35.705Z,-4.10
2022-12-18T00:44:45.148Z,-4.10
2022-12-18T00:44:54.539Z,-4.10
2022-12-18T00:45:09.046Z,-4.10
2022-12-18T00:45:13.487Z,-4.10
2022-12-18T00:45:22.799Z,-4.10
2022-12-18T00:45:32.210Z,-4.20
2022-12-18T00:45:41.556Z,-4.20
2022-12-18T00:45:51.093Z,-4.20
2022-12-18T00:46:00.468Z,-4.20
2022-12-18T00:46:19.262Z,-4.20
2022-12-18T00:46:28.600Z,-4.20
2022-12-18T00:46:38.008Z,-4.20
2022-12-18T00:46:47.401Z,-4.20
2022-12-18T00:46:56.816Z,-4.20
2022-12-18T00:47:06.218Z,-4.20
2022-12-18T00:47:15.621Z,-4.20
2022-12-18T00:47:25.057Z,-4.20
2022-12-18T00:47:34.505Z,-4.20
2022-12-18T00:47:43.905Z,-4.20
2022-12-18T00:47:53.312Z,-4.20
2022-12-18T00:48:02.697Z,-4.20
2022-12-18T00:48:12.104Z,-4.20
2022-12-18T00:48:21.497Z,-4.20
2022-12-18T00:48:30.922Z,-4.20
2022-12-18T00:48:40.351Z,-4.20
2022-12-18T00:48:59.156Z,-4.20
2022-12-18T00:49:08.563Z,-4.20
2022-12-18T00:49:17.962Z,-4.20
2022-12-18T00:49:27.372Z,-4.30
2022-12-18T00:49:36.766Z,-4.20
2022-12-18T00:49:46.160Z,-4.30
2022-12-18T00:49:55.566Z,-4.30
2022-12-18T00:50:04.987Z,-4.30
2022-12-18T00:50:14.416Z,-4.30
2022-12-18T00:50:23.867Z,-4.30
2022-12-18T00:50:33.279Z,-4.30
2022-12-18T00:50:42.671Z,-4.30
2022-12-18T00:50:52.082Z,-4.30
2022-12-18T00:51:01.467Z,-4.30
2022-12-18T00:51:10.860Z,-4.30
2022-12-18T00:51:20.249Z,-4.30
2022-12-18T00:51:39.071Z,-4.30
2022-12-18T00:51:48.487Z,-4.30
2022-12-18T00:51:57.883Z,-4.30
2022-12-18T00:52:07.293Z,-4.30
2022-12-18T00:52:16.743Z,-4.30
2022-12-18T00:52:26.189Z,-4.30
2022-12-18T00:52:35.596Z,-4.30
2022-12-18T00:52:45.012Z,-4.30
2022-12-18T00:52:54.417Z,-4.30
2022-12-18T00:53:03.784Z,-4.30
2022-12-18T00:53:13.190Z,-4.30
2022-12-18T00:53:22.604Z,-4.30
2022-12-18T00:53:32.015Z,-4.30
2022-12-18T00:53:41.548Z,-4.30
2022-12-18T00:53:50.810Z,-4.30
2022-12-18T00:54:00.238Z,-4.30
2022-12-18T00:54:19.020Z,-4.30
2022-12-18T00:54:28.443Z,-4.30
2022-12-18T00:54:37.926Z,-4.40
2022-12-18T00:54:47.326Z,-4.40
2022-12-18T00:54:58.100Z,-4.30
2022-12-18T00:55:06.703Z,-4.30
2022-12-18T00:55:15.530Z,-4.30
2022-12-18T00:55:24.926Z,-4.40
2022-12-18T00:55:34.318Z,-4.40
2022-12-18T00:55:43.725Z,-4.40
2022-12-18T00:55:53.141Z,-4.40
2022-12-18T00:56:02.548Z,-4.40
2022-12-18T00:56:11.959Z,-4.40
2022-12-18T00:56:21.404Z,-4.40
2022-12-18T00:56:30.885Z,-4.40
2022-12-18T00:56:48.301Z,-4.40
2022-12-18T00:56:59.095Z,-4.40
2022-12-18T00:57:08.505Z,-4.40
2022-12-18T00:57:17.907Z,-4.40
2022-12-18T00:57:27.315Z,-4.40
2022-12-18T00:57:36.715Z,-4.40
2022-12-18T00:57:46.123Z,-4.40
2022-12-18T00:57:55.521Z,-4.40
2022-12-18T00:58:04.912Z,-4.40
2022-12-18T00:58:14.299Z,-4.40
2022-12-18T00:58:23.696Z,-4.40
2022-12-18T00:58:33.193Z,-4.40
2022-12-18T00:58:42.826Z,-4.40
2022-12-18T00:58:52.350Z,-4.40
2022-12-18T00:59:01.741Z,-4.40
2022-12-18T00:59:11.138Z,-4.40
2022-12-18T00:59:20.564Z,-4.40
2022-12-18T00:59:29.940Z,-4.40
2022-12-18T00:59:48.747Z,-4.40
2022-12-18T00:59:58.145Z,-4.40
2022-12-18T01:00:07.556Z,-4.40
2022-12-18T01:00:17.035Z,-4.40
2022-12-18T01:00:26.454Z,-4.40
2022-12-18T01:00:35.916Z,-4.40
2022-12-18T01:00:45.375Z,-4.40
2022-12-18T01:00:54.738Z,-4.40
2022-12-18T01:01:04.171Z,-4.40
2022-12-18T01:01:13.810Z,-4.40
2022-12-18T01:01:23.083Z,-4.40
2022-12-18T01:01:32.496Z,-4.40
2022-12-18T01:01:42.001Z,-4.40
2022-12-18T01:01:51.326Z,-4.40
2022-12-18T01:02:00.880Z,-4.40
2022-12-18T01:02:10.109Z,-4.40
2022-12-18T01:02:29.059Z,-4.40
2022-12-18T01:02:38.515Z,-4.40
2022-12-18T01:02:47.990Z,-4.40
2022-12-18T01:02:57.230Z,-4.40
2022-12-18T01:03:06.753Z,-4.40
2022-12-18T01:03:16.078Z,-4.40
2022-12-18T01:03:25.364Z,-4.40
2022-12-18T01:03:34.969Z,-4.40
2022-12-18T01:03:44.242Z,-4.40
2022-12-18T01:03:53.715Z,-4.40
2022-12-18T01:04:03.124Z,-4.40
2022-12-18T01:04:12.529Z,-4.40
2022-12-18T01:04:21.922Z,-4.40
2022-12-18T01:04:31.346Z,-4.40
2022-12-18T01:04:40.761Z,-4.40
2022-12-18T01:04:50.155Z,-4.40
2022-12-18T01:05:08.982Z,-4.40
2022-12-18T01:05:18.369Z,-4.40
2022-12-18T01:05:27.778Z,-4.40
2022-12-18T01:05:37.265Z,-4.40
2022-12-18T01:05:46.660Z,-4.40
2022-12-18T01:05:56.059Z,-4.40
2022-12-18T01:06:05.449Z,-4.40
2022-12-18T01:06:14.866Z,-4.40
2022-12-18T01:06:24.299Z,-4.40
2022-12-18T01:06:33.712Z,-4.40
2022-12-18T01:06:43.129Z,-4.40
2022-12-18T01:06:52.550Z,-4.40
2022-12-18T01:07:02.027Z,-4.40
2022-12-18T01:07:11.423Z,-4.40
2022-12-18T01:07:20.827Z,-4.40
2022-12-18T01:07:30.238Z,-4.40
2022-12-18T01:07:49.067Z,-4.40
2022-12-18T01:07:58.476Z,-4.40
2022-12-18T01:08:07.901Z,-4.40
2022-12-18T01:08:17.353Z,-4.40
2022-12-18T01:08:26.746Z,-4.40
2022-12-18T01:08:36.182Z,-4.40
2022-12-18T01:08:45.550Z,-4.40
2022-12-18T01:08:54.952Z,-4.40
2022-12-18T01:09:04.345Z,-4.40
2022-12-18T01:09:13.750Z,-4.40
2022-12-18T01:09:23.148Z,-4.40
2022-12-18T01:09:32.559Z,-4.40
2022-12-18T01:09:41.979Z,-4.40
2022-12-18T01:09:51.474Z,-4.40
2022-12-18T01:10:00.885Z,-4.40
2022-12-18T01:10:10.266Z,-4.40
2022-12-18T01:10:29.073Z,-4.40
2022-12-18T01:10:38.497Z,-4.40
2022-12-18T01:10:47.910Z,-4.40
2022-12-18T01:10:57.318Z,-4.40
2022-12-18T01:11:06.726Z,-4.40
2022-12-18T01:11:16.133Z,-4.40
2022-12-18T01:11:25.548Z,-4.40
2022-12-18T01:11:34.969Z,-4.40
2022-12-18T01:11:44.363Z,-4.40
2022-12-18T01:11:53.754Z,-4.30
2022-12-18T01:12:03.191Z,-4.40
2022-12-18T01:12:12.606Z,-4.30
2022-12-18T01:12:21.982Z,-4.30
2022-12-18T01:12:31.441Z,-4.30
2022-12-18T01:12:40.834Z,-4.30
2022-12-18T01:12:50.236Z,-4.30
2022-12-18T01:13:09.062Z,-4.30
2022-12-18T01:13:18.457Z,-4.30
2022-12-18T01:13:27.868Z,-4.30
2022-12-18T01:13:37.610Z,-4.30
2022-12-18T01:13:46.657Z,-4.30
2022-12-18T01:13:56.050Z,-4.30
2022-12-18T01:14:05.469Z,-4.30
2022-12-18T01:14:14.923Z,-4.30
2022-12-18T01:14:24.341Z,-4.30
2022-12-18T01:14:33.770Z,-4.30
2022-12-18T01:14:43.167Z,-4.30
2022-12-18T01:14:52.570Z,-4.40
2022-12-18T01:15:01.968Z,-4.40
2022-12-18T01:15:11.397Z,-4.40
2022-12-18T01:15:20.802Z,-4.40
2022-12-18T01:15:30.196Z,-4.40
2022-12-18T01:15:49.008Z,-4.40
2022-12-18T01:15:58.503Z,-4.40
2022-12-18T01:16:07.891Z,-4.40
2022-12-18T01:16:17.297Z,-4.40
2022-12-18T01:16:26.704Z,-4.40
2022-12-18T01:16:36.220Z,-4.30
2022-12-18T01:16:45.651Z,-4.50
2022-12-18T01:16:55.039Z,-4.40
2022-12-18T01:17:04.369Z,-4.50
2022-12-18T01:17:13.767Z,-4.50
2022-12-18T01:17:23.216Z,-4.50
2022-12-18T01:17:32.661Z,-4.40
2022-12-18T01:17:42.051Z,-4.40
2022-12-18T01:17:51.441Z,-4.40
2022-12-18T01:18:00.864Z,-4.30
2022-12-18T01:18:10.275Z,-4.40
2022-12-18T01:18:29.062Z,-4.40
2022-12-18T01:18:38.480Z,-4.40
2022-12-18T01:18:47.874Z,-4.40
2022-12-18T01:18:57.263Z,-4.40
2022-12-18T01:19:06.677Z,-4.40
2022-12-18T01:19:16.189Z,-4.40
2022-12-18T01:19:25.603Z,-4.40
2022-12-18T01:19:35.034Z,-4.40
2022-12-18T01:19:44.432Z,-4.40
2022-12-18T01:19:53.829Z,-4.40
2022-12-18T01:20:03.236Z,-4.40
2022-12-18T01:20:12.646Z,-4.40
2022-12-18T01:20:22.068Z,-4.40
2022-12-18T01:20:31.468Z,-4.40
2022-12-18T01:20:40.886Z,-4.40
2022-12-18T01:20:50.293Z,-4.40
2022-12-18T01:21:09.175Z,-4.40
2022-12-18T01:21:18.599Z,-4.40
2022-12-18T01:21:28.085Z,-4.40
2022-12-18T01:21:37.481Z,-4.40
2022-12-18T01:21:46.870Z,-4.40
2022-12-18T01:21:56.273Z,-4.40
2022-12-18T01:22:05.663Z,-4.40
2022-12-18T01:22:15.079Z,-4.40
2022-12-18T01:22:24.484Z,-4.30
2022-12-18T01:22:33.910Z,-4.30
2022-12-18T01:22:43.350Z,-4.30
2022-12-18T01:22:52.764Z,-4.30
2022-12-18T01:23:02.184Z,-4.30
2022-12-18T01:23:11.572Z,-4.30
2022-12-18T01:23:20.974Z,-4.30
2022-12-18T01:23:30.381Z,-4.30
2022-12-18T01:23:49.164Z,-4.30
2022-12-18T01:23:58.593Z,-4.30
2022-12-18T01:24:07.994Z,-4.30
2022-12-18T01:24:17.385Z,-4.30
2022-12-18T01:24:26.783Z,-4.30
2022-12-18T01:24:36.192Z,-4.30
2022-12-18T01:24:45.623Z,-4.30
2022-12-18T01:24:55.017Z,-4.30
2022-12-18T01:25:04.442Z,-4.30
2022-12-18T01:25:13.844Z,-4.30
2022-12-18T01:25:23.238Z,-4.30
2022-12-18T01:25:32.644Z,-4.30
2022-12-18T01:25:42.723Z,-4.30
2022-12-18T01:25:52.178Z,-4.30
2022-12-18T01:26:01.595Z,-4.30
2022-12-18T01:26:10.998Z,-4.30
2022-12-18T01:26:20.432Z,-4.30
2022-12-18T01:26:39.276Z,-4.30
2022-12-18T01:26:48.693Z,-4.30
2022-12-18T01:26:58.114Z,-4.30
2022-12-18T01:27:07.549Z,-4.30
2022-12-18T01:27:16.957Z,-4.30
2022-12-18T01:27:26.381Z,-4.30
2022-12-18T01:27:35.904Z,-4.30
2022-12-18T01:27:45.300Z,-4.30
2022-12-18T01:27:54.701Z,-4.30
2022-12-18T01:28:04.093Z,-4.30
2022-12-18T01:28:13.490Z,-4.30
2022-12-18T01:28:22.892Z,-4.30
2022-12-18T01:28:32.296Z,-4.30
2022-12-18T01:28:41.702Z,-4.30
2022-12-18T01:28:51.095Z,-4.30
2022-12-18T01:29:00.501Z,-4.30
2022-12-18T01:29:09.905Z,-4.30
2022-12-18T01:29:28.735Z,-4.20
2022-12-18T01:29:38.143Z,-4.20
2022-12-18T01:29:47.534Z,-4.20
2022-12-18T01:29:56.944Z,-4.20
2022-12-18T01:30:06.342Z,-4.20
2022-12-18T01:30:15.730Z,-4.20
2022-12-18T01:30:25.128Z,-4.20
2022-12-18T01:30:34.530Z,-4.20
2022-12-18T01:30:43.941Z,-4.20
2022-12-18T01:30:53.420Z,-4.20
2022-12-18T01:31:02.819Z,-4.20
2022-12-18T01:31:12.280Z,-4.20
2022-12-18T01:31:21.709Z,-4.20
2022-12-18T01:31:31.098Z,-4.20
2022-12-18T01:31:40.522Z,-4.20
2022-12-18T01:31:59.284Z,-4.20
2022-12-18T01:32:08.646Z,-4.20
2022-12-18T01:32:18.017Z,-4.20
2022-12-18T01:32:27.414Z,-4.20
2022-12-18T01:32:36.842Z,-4.20
2022-12-18T01:32:46.221Z,-4.20
2022-12-18T01:32:55.624Z,-4.20
2022-12-18T01:33:05.060Z,-4.30
2022-12-18T01:33:14.458Z,-4.30
2022-12-18T01:33:23.842Z,-4.30
2022-12-18T01:33:33.240Z,-4.30
2022-12-18T01:33:42.659Z,-4.30
2022-12-18T01:33:52.057Z,-4.30
2022-12-18T01:34:01.480Z,-4.30
2022-12-18T01:34:10.908Z,-4.40
2022-12-18T01:34:20.297Z,-4.40
2022-12-18T01:34:39.094Z,-4.40
2022-12-18T01:34:48.518Z,-4.40
2022-12-18T01:34:57.931Z,-4.40
2022-12-18T01:35:07.328Z,-4.40
2022-12-18T01:35:16.714Z,-4.40
2022-12-18T01:35:26.094Z,-4.40
2022-12-18T01:35:35.496Z,-4.40
2022-12-18T01:35:44.908Z,-4.40
2022-12-18T01:35:54.318Z,-4.50
2022-12-18T01:36:03.708Z,-4.40
2022-12-18T01:36:13.131Z,-4.40
2022-12-18T01:36:22.520Z,-4.40
2022-12-18T01:36:31.932Z,-4.40
2022-12-18T01:36:41.351Z,-4.40
2022-12-18T01:36:50.761Z,-4.40
2022-12-18T01:37:00.171Z,-4.40
2022-12-18T01:37:19.012Z,-4.40
2022-12-18T01:37:28.395Z,-4.40
2022-12-18T01:37:37.822Z,-4.40
2022-12-18T01:37:47.243Z,-4.40
2022-12-18T01:37:56.690Z,-4.40
2022-12-18T01:38:06.084Z,-4.50
2022-12-18T01:38:15.497Z,-4.50
2022-12-18T01:38:24.864Z,-4.50
2022-12-18T01:38:34.262Z,-4.50
2022-12-18T01:38:43.658Z,-4.50
2022-12-18T01:38:53.079Z,-4.50
2022-12-18T01:39:02.490Z,-4.50
2022-12-18T01:39:11.889Z,-4.50
2022-12-18T01:39:21.303Z,-4.50
2022-12-18T01:39:30.700Z,-4.50
2022-12-18T01:39:40.153Z,-4.40
2022-12-18T01:39:58.905Z,-4.40
2022-12-18T01:40:08.317Z,-4.40
2022-12-18T01:40:17.708Z,-4.40
2022-12-18T01:40:27.130Z,-4.40
2022-12-18T01:40:36.547Z,-4.50
2022-12-18T01:40:45.970Z,-4.50
2022-12-18T01:40:55.475Z,-4.50
2022-12-18T01:41:04.870Z,-4.50
2022-12-18T01:41:14.335Z,-4.50
2022-12-18T01:41:23.736Z,-4.50
2022-12-18T01:41:33.138Z,-4.50
2022-12-18T01:41:42.677Z,-4.50
2022-12-18T01:41:52.066Z,-4.50
2022-12-18T01:42:01.483Z,-4.50
2022-12-18T01:42:10.888Z,-4.50
2022-12-18T01:42:20.289Z,-4.50
2022-12-18T01:42:39.128Z,-4.50
2022-12-18T01:42:48.584Z,-4.50
2022-12-18T01:43:00.044Z,-4.50
2022-12-18T01:43:09.445Z,-4.50
2022-12-18T01:43:18.863Z,-4.50
2022-12-18T01:43:28.286Z,-4.50
2022-12-18T01:43:38.289Z,-4.50
2022-12-18T01:43:47.381Z,-4.50
2022-12-18T01:43:56.805Z,-4.50
2022-12-18T01:44:06.300Z,-4.50
2022-12-18T01:44:15.694Z,-4.50
2022-12-18T01:44:25.099Z,-4.60
2022-12-18T01:44:34.491Z,-4.50
2022-12-18T01:44:43.932Z,-4.60
2022-12-18T01:44:53.348Z,-4.60
2022-12-18T01:45:05.012Z,-4.50
2022-12-18T01:45:14.406Z,-4.60
2022-12-18T01:45:23.794Z,-4.50
2022-12-18T01:45:33.273Z,-4.50
2022-12-18T01:45:42.673Z,-4.50
2022-12-18T01:45:52.074Z,-4.60
2022-12-18T01:46:01.496Z,-4.60
2022-12-18T01:46:10.893Z,-4.60
2022-12-18T01:46:20.293Z,-4.60
2022-12-18T01:46:39.195Z,-4.60
2022-12-18T01:46:48.601Z,-4.60
2022-12-18T01:46:58.001Z,-4.60
2022-12-18T01:47:07.402Z,-4.60
2022-12-18T01:47:16.788Z,-4.50
2022-12-18T01:47:26.170Z,-4.60
2022-12-18T01:47:35.572Z,-4.60
2022-12-18T01:47:46.303Z,-4.60
2022-12-18T01:47:54.411Z,-4.60
2022-12-18T01:48:03.830Z,-4.60
2022-12-18T01:48:13.256Z,-4.60
2022-12-18T01:48:22.677Z,-4.60
2022-12-18T01:48:32.086Z,-4.60
2022-12-18T01:48:41.559Z,-4.60
2022-12-18T01:48:50.962Z,-4.60
2022-12-18T01:49:00.373Z,-4.60
2022-12-18T01:49:19.138Z,-4.60
2022-12-18T01:49:28.556Z,-4.60
2022-12-18T01:49:37.985Z,-4.60
2022-12-18T01:49:47.376Z,-4.60
2022-12-18T01:49:56.790Z,-4.60
2022-12-18T01:50:06.205Z,-4.60
2022-12-18T01:50:15.634Z,-4.60
2022-12-18T01:50:25.045Z,-4.60
2022-12-18T01:50:34.461Z,-4.60
2022-12-18T01:50:43.853Z,-4.60
2022-12-18T01:50:53.289Z,-4.60
2022-12-18T01:51:02.701Z,-4.60
2022-12-18T01:51:12.107Z,-4.60
2022-12-18T01:51:21.555Z,-4.60
2022-12-18T01:51:30.956Z,-4.60
2022-12-18T01:51:40.334Z,-4.60
2022-12-18T01:51:59.117Z,-4.60
2022-12-18T01:52:08.567Z,-4.60
2022-12-18T01:52:17.978Z,-4.60
2022-12-18T01:52:27.393Z,-4.60
2022-12-18T01:52:36.778Z,-4.60
2022-12-18T01:52:46.228Z,-4.60
2022-12-18T01:52:55.638Z,-4.60
2022-12-18T01:53:05.072Z,-4.60
2022-12-18T01:53:14.475Z,-4.60
2022-12-18T01:53:23.874Z,-4.70
2022-12-18T01:53:33.320Z,-4.70
2022-12-18T01:53:42.745Z,-4.70
2022-12-18T01:53:52.150Z,-4.70
2022-12-18T01:54:01.553Z,-4.70
2022-12-18T01:54:10.954Z,-4.70
2022-12-18T01:54:20.369Z,-4.70
2022-12-18T01:54:39.167Z,-4.70
2022-12-18T01:54:48.568Z,-4.70
2022-12-18T01:54:57.971Z,-4.70
2022-12-18T01:55:07.403Z,-4.70
2022-12-18T01:55:16.784Z,-4.70
2022-12-18T01:55:26.198Z,-4.70
2022-12-18T01:55:35.614Z,-4.70
2022-12-18T01:55:45.055Z,-4.60
2022-12-18T01:55:54.463Z,-4.70
2022-12-18T01:56:03.882Z,-4.60
2022-12-18T01:56:13.282Z,-4.70
2022-12-18T01:56:22.668Z,-4.70
2022-12-18T01:56:32.098Z,-4.70
2022-12-18T01:56:41.479Z,-4.70
2022-12-18T01:56:50.898Z,-4.70
2022-12-18T01:57:00.336Z,-4.70
2022-12-18T01:57:19.152Z,-4.70
2022-12-18T01:57:28.585Z,-4.70
2022-12-18T01:57:37.992Z,-4.70
2022-12-18T01:57:47.490Z,-4.70
2022-12-18T01:57:56.906Z,-4.70
2022-12-18T01:58:06.335Z,-4.70
2022-12-18T01:58:15.744Z,-4.70
2022-12-18T01:58:25.168Z,-4.70
2022-12-18T01:58:34.581Z,-4.60
2022-12-18T01:58:44.015Z,-4.60
2022-12-18T01:58:53.430Z,-4.70
2022-12-18T01:59:02.844Z,-4.70
2022-12-18T01:59:12.238Z,-4.70
2022-12-18T01:59:21.724Z,-4.60
2022-12-18T01:59:31.122Z,-4.60
2022-12-18T01:59:40.527Z,-4.60
2022-12-18T01:59:50.061Z,-4.60
2022-12-18T02:00:08.976Z,-4.60
2022-12-18T02:00:18.428Z,-4.60
2022-12-18T02:00:27.844Z,-4.60
2022-12-18T02:00:37.256Z,-4.60
2022-12-18T02:00:46.725Z,-4.60
2022-12-18T02:00:56.218Z,-4.60
2022-12-18T02:01:05.590Z,-4.60
2022-12-18T02:01:15.333Z,-4.60
2022-12-18T02:01:24.698Z,-4.60
2022-12-18T02:01:34.046Z,-4.60
2022-12-18T02:01:43.511Z,-4.60
2022-12-18T02:01:52.959Z,-4.60
2022-12-18T02:02:02.377Z,-4.60
2022-12-18T02:02:11.725Z,-4.60
2022-12-18T02:02:21.137Z,-4.60
2022-12-18T02:02:30.594Z,-4.60
2022-12-18T02:02:49.427Z,-4.60
2022-12-18T02:02:58.886Z,-4.60
2022-12-18T02:03:08.170Z,-4.60
2022-12-18T02:03:17.586Z,-4.60
2022-12-18T02:03:27.020Z,-4.60
2022-12-18T02:03:36.868Z,-4.60
2022-12-18T02:03:45.953Z,-4.60
2022-12-18T02:03:55.375Z,-4.60
2022-12-18T02:04:04.790Z,-4.60
2022-12-18T02:04:14.218Z,-4.60
2022-12-18T02:04:23.680Z,-4.60
2022-12-18T02:04:33.090Z,-4.60
2022-12-18T02:04:47.813Z,-4.60
2022-12-18T02:04:51.894Z,-4.60
2022-12-18T02:05:01.325Z,-4.60
2022-12-18T02:05:10.738Z,-4.60
2022-12-18T02:05:20.148Z,-4.60
2022-12-18T02:05:38.999Z,-4.60
2022-12-18T02:05:48.412Z,-4.60
2022-12-18T02:05:57.854Z,-4.60
2022-12-18T02:06:07.270Z,-4.60
2022-12-18T02:06:16.738Z,-4.50
2022-12-18T02:06:26.157Z,-4.50
2022-12-18T02:06:35.568Z,-4.50
2022-12-18T02:06:44.985Z,-4.50
2022-12-18T02:06:54.420Z,-4.50
2022-12-18T02:07:03.834Z,-4.50
2022-12-18T02:07:13.235Z,-4.50
2022-12-18T02:07:22.634Z,-4.50
2022-12-18T02:07:32.048Z,-4.50
2022-12-18T02:07:41.465Z,-4.50
2022-12-18T02:07:50.862Z,-4.50
2022-12-18T02:08:00.256Z,-4.50
2022-12-18T02:08:19.102Z,-4.50
2022-12-18T02:08:28.543Z,-4.50
2022-12-18T02:08:37.934Z,-4.50
2022-12-18T02:08:47.407Z,-4.50
2022-12-18T02:08:56.804Z,-4.50
2022-12-18T02:09:06.231Z,-4.50